Time;durP1;ratioP1;P1;durP2;ratioP2;P2;SDS_P1;SDS_P2;PMS_P1;PMS_P2;Temp;Humidity;BMP_temperature;BMP_pressure;BME280_temperature;BME280_humidity;BME280_pressure;Samples;Min_cycle;Max_cycle;Signal;HPM_P1;HPM_P2
2023/10/20 00:00:34;;;;;;;36.90;20.58;;;;;;;15.06;100.00;98272.44;5047015;28;20017;-78
2023/10/20 00:02:59;;;;;;;41.00;21.65;;;;;;;15.19;100.00;98277.91;5045350;28;20470;-79
2023/10/20 00:05:25;;;;;;;40.03;23.00;;;;;;;15.18;100.00;98284.50;5043503;28;20113;-79
2023/10/20 00:07:51;;;;;;;42.40;23.08;;;;;;;15.17;100.00;98279.22;5047108;28;20107;-78
2023/10/20 00:10:17;;;;;;;41.50;23.13;;;;;;;15.11;100.00;98271.78;5046283;28;20670;-79
2023/10/20 00:12:43;;;;;;;43.53;22.40;;;;;;;15.12;100.00;98273.47;5029511;28;20029;-78
2023/10/20 00:15:15;;;;;;;43.42;22.10;;;;;;;15.14;100.00;98266.69;5048020;28;20448;-79
2023/10/20 00:17:41;;;;;;;43.60;22.08;;;;;;;15.16;100.00;98256.28;5047854;28;20071;-79
2023/10/20 00:20:09;;;;;;;45.58;23.40;;;;;;;15.17;100.00;98268.19;5050556;28;20487;-79
2023/10/20 00:22:35;;;;;;;48.78;23.00;;;;;;;15.13;100.00;98255.88;5046394;28;20073;-79
2023/10/20 00:25:00;;;;;;;43.85;23.50;;;;;;;15.13;100.00;98256.72;5042940;28;20395;-79
2023/10/20 00:27:26;;;;;;;49.15;23.92;;;;;;;15.15;100.00;98267.53;5047012;28;20029;-79
2023/10/20 00:29:51;;;;;;;46.03;23.05;;;;;;;15.15;100.00;98262.00;5049289;28;20056;-79
2023/10/20 00:32:17;;;;;;;48.00;22.27;;;;;;;15.13;100.00;98256.72;5030206;28;20045;-79
2023/10/20 00:34:44;;;;;;;56.50;24.70;;;;;;;15.16;100.00;98245.25;5029467;28;20044;-79
2023/10/20 00:37:10;;;;;;;45.70;23.38;;;;;;;15.11;100.00;98236.81;5013141;28;20503;-79
2023/10/20 00:39:36;;;;;;;52.47;26.52;;;;;;;15.10;100.00;98223.22;5029647;28;20159;-79
2023/10/20 00:42:02;;;;;;;59.22;25.23;;;;;;;15.12;100.00;98212.84;5048014;28;20074;-79
2023/10/20 00:44:28;;;;;;;57.75;25.27;;;;;;;15.06;100.00;98200.78;5032648;28;20364;-79
2023/10/20 00:46:53;;;;;;;58.40;26.83;;;;;;;15.06;100.00;98195.25;5046898;28;20568;-79
2023/10/20 00:49:19;;;;;;;58.65;25.98;;;;;;;15.09;100.00;98197.59;5047577;28;20037;-78
2023/10/20 00:51:45;;;;;;;53.65;25.77;;;;;;;14.99;100.00;98183.44;5051172;28;20020;-79
2023/10/20 00:54:13;;;;;;;63.80;27.08;;;;;;;14.95;100.00;98176.63;5033719;28;20037;-79
2023/10/20 00:56:44;;;;;;;61.05;26.85;;;;;;;14.99;100.00;98186.19;5050950;28;20543;-79
2023/10/20 00:59:11;;;;;;;55.45;24.63;;;;;;;15.01;100.00;98186.81;5046411;28;20090;-78
2023/10/20 01:01:37;;;;;;;59.65;26.70;;;;;;;14.94;100.00;98175.81;5052143;28;20064;-78
2023/10/20 01:04:04;;;;;;;63.17;27.52;;;;;;;14.97;100.00;98174.50;5047149;28;20033;-78
2023/10/20 01:06:29;;;;;;;64.00;26.90;;;;;;;14.92;100.00;98161.41;5052386;28;20045;-78
2023/10/20 01:08:58;;;;;;;60.30;27.83;;;;;;;14.91;100.00;98154.19;5048647;28;20045;-78
2023/10/20 01:11:24;;;;;;;60.45;27.35;;;;;;;14.82;100.00;98166.50;5050855;28;20037;-78
2023/10/20 01:13:50;;;;;;;64.45;28.48;;;;;;;14.86;100.00;98146.56;5051763;28;20032;-79
2023/10/20 01:16:20;;;;;;;64.38;27.50;;;;;;;14.80;100.00;98152.94;5035524;28;20032;-78
2023/10/20 01:18:45;;;;;;;68.38;28.13;;;;;;;14.91;100.00;98140.41;5045340;28;20028;-78
2023/10/20 01:21:11;;;;;;;64.05;28.65;;;;;;;14.84;100.00;98126.66;5018135;28;20041;-78
2023/10/20 01:23:37;;;;;;;73.32;29.23;;;;;;;14.90;100.00;98130.44;5049448;28;20513;-78
2023/10/20 01:26:03;;;;;;;63.17;28.48;;;;;;;14.83;100.00;98113.94;5048273;28;20029;-78
2023/10/20 01:28:30;;;;;;;66.03;28.92;;;;;;;14.83;100.00;98119.44;5049475;28;20036;-78
2023/10/20 01:31:00;;;;;;;69.93;30.83;;;;;;;14.82;100.00;98114.16;5031392;28;20040;-78
2023/10/20 01:33:26;;;;;;;61.55;28.25;;;;;;;14.88;100.00;98108.63;5006864;28;20033;-78
2023/10/20 01:35:53;;;;;;;62.35;28.73;;;;;;;14.88;100.00;98116.06;5030747;28;20033;-79
2023/10/20 01:38:18;;;;;;;62.65;29.70;;;;;;;14.87;100.00;98117.09;5047878;28;20028;-79
2023/10/20 01:40:48;;;;;;;61.75;28.40;;;;;;;14.92;100.00;98113.69;5050130;28;20086;-79
2023/10/20 01:43:14;;;;;;;63.88;28.88;;;;;;;14.96;100.00;98101.19;5031338;28;20043;-78
2023/10/20 01:45:39;;;;;;;58.65;28.17;;;;;;;14.83;100.00;98091.91;5030044;28;21193;-78
2023/10/20 01:48:06;;;;;;;59.53;26.58;;;;;;;14.84;100.00;98088.09;5016932;28;20112;-78
2023/10/20 01:50:31;;;;;;;66.30;28.73;;;;;;;14.83;100.00;98072.63;5028495;28;20066;-78
2023/10/20 01:52:57;;;;;;;60.97;28.23;;;;;;;14.78;100.00;98080.69;5048348;28;20033;-78
2023/10/20 01:55:22;;;;;;;54.42;26.48;;;;;;;14.68;100.00;98086.66;5049080;28;20155;-78
2023/10/20 01:57:48;;;;;;;63.50;26.85;;;;;;;14.70;100.00;98089.19;5047324;28;20082;-78
2023/10/20 02:00:14;;;;;;;56.70;27.23;;;;;;;14.79;100.00;98079.66;5033222;28;20086;-77
2023/10/20 02:02:40;;;;;;;63.97;24.80;;;;;;;14.74;100.00;98076.69;5049374;28;20025;-77
2023/10/20 02:05:08;;;;;;;58.60;26.55;;;;;;;14.75;100.00;98066.53;5029262;28;20048;-77
2023/10/20 02:07:34;;;;;;;55.55;23.77;;;;;;;14.62;100.00;98059.97;5045511;28;20037;-77
2023/10/20 02:10:01;;;;;;;50.95;24.75;;;;;;;14.67;100.00;98060.16;5031108;28;20419;-77
2023/10/20 02:12:27;;;;;;;52.03;26.13;;;;;;;14.75;100.00;98056.34;5050684;28;20025;-77
2023/10/20 02:14:53;;;;;;;53.28;24.58;;;;;;;14.70;100.00;98053.41;5008333;28;20039;-77
2023/10/20 02:17:20;;;;;;;47.55;24.52;;;;;;;14.70;100.00;98039.63;5041345;28;20037;-77
2023/10/20 02:19:48;;;;;;;51.25;24.67;;;;;;;14.65;100.00;98044.94;5039451;28;20114;-77
2023/10/20 02:22:14;;;;;;;51.20;25.00;;;;;;;14.78;100.00;98042.13;5030606;28;20039;-77
2023/10/20 02:24:40;;;;;;;50.45;25.67;;;;;;;14.70;100.00;98034.94;5047485;28;20108;-77
2023/10/20 02:27:05;;;;;;;53.60;25.83;;;;;;;14.69;100.00;98024.16;5040473;28;20154;-77
2023/10/20 02:29:30;;;;;;;49.38;23.80;;;;;;;14.73;100.00;98025.41;5030405;28;20068;-77
2023/10/20 02:31:56;;;;;;;50.65;24.15;;;;;;;14.78;100.00;98025.59;5030589;28;20032;-77
2023/10/20 02:34:23;;;;;;;45.95;24.02;;;;;;;14.74;100.00;98015.25;5016106;28;20186;-77
2023/10/20 02:36:49;;;;;;;53.03;25.30;;;;;;;14.75;100.00;98006.75;5031732;28;20025;-77
2023/10/20 02:39:15;;;;;;;51.08;23.33;;;;;;;14.76;100.00;98000.19;5030375;28;20109;-77
2023/10/20 02:41:41;;;;;;;57.45;24.77;;;;;;;14.76;100.00;97991.06;5032050;28;20021;-77
2023/10/20 02:44:06;;;;;;;51.15;23.58;;;;;;;14.72;100.00;98000.84;5047815;28;20122;-77
2023/10/20 02:46:32;;;;;;;51.42;24.33;;;;;;;14.79;100.00;97993.38;5046183;28;20501;-76
2023/10/20 02:48:58;;;;;;;58.60;25.90;;;;;;;14.70;100.00;97984.53;5045363;28;20563;-77
2023/10/20 02:51:23;;;;;;;64.78;25.85;;;;;;;14.71;100.00;97980.72;5028223;28;20041;-77
2023/10/20 02:53:49;;;;;;;52.63;24.92;;;;;;;14.79;100.00;97977.72;5043378;28;20045;-77
2023/10/20 02:56:19;;;;;;;55.38;24.70;;;;;;;14.74;100.00;97955.50;5032272;28;20499;-77
2023/10/20 02:58:46;;;;;;;61.40;26.65;;;;;;;14.66;100.00;97945.59;5049529;28;20063;-85
2023/10/20 03:01:17;;;;;;;54.90;25.27;;;;;;;14.65;100.00;97935.63;5025123;28;20125;-85
2023/10/20 03:03:43;;;;;;;51.97;26.33;;;;;;;14.66;100.00;97930.97;5050695;28;20059;-86
2023/10/20 03:06:09;;;;;;;53.63;25.25;;;;;;;14.66;100.00;97928.22;5042858;28;20021;-86
2023/10/20 03:08:37;;;;;;;58.28;25.15;;;;;;;14.65;100.00;97927.34;5015618;28;20394;-86
2023/10/20 03:11:04;;;;;;;63.85;26.73;;;;;;;14.59;100.00;97908.97;5052568;28;20492;-87
2023/10/20 03:13:29;;;;;;;58.45;25.70;;;;;;;14.62;100.00;97903.00;5048788;28;20040;-85
2023/10/20 03:15:54;;;;;;;59.47;26.17;;;;;;;14.63;100.00;97904.72;5044550;28;20128;-86
2023/10/20 03:18:21;;;;;;;54.17;25.67;;;;;;;14.61;100.00;97900.47;5027648;28;20127;-86
2023/10/20 03:20:50;;;;;;;51.08;24.35;;;;;;;14.48;100.00;97912.41;5028192;28;20030;-85
2023/10/20 03:23:18;;;;;;;57.47;26.10;;;;;;;14.58;100.00;97918.28;5047428;28;20139;-86
2023/10/20 03:25:43;;;;;;;53.85;26.15;;;;;;;14.65;100.00;97919.09;5057078;28;20032;-86
2023/10/20 03:28:09;;;;;;;59.17;25.90;;;;;;;14.65;100.00;97913.59;5043776;28;20048;-86
2023/10/20 03:30:41;;;;;;;57.70;26.10;;;;;;;14.56;100.00;97905.78;5048689;28;20041;-86
2023/10/20 03:33:13;;;;;;;51.20;25.05;;;;;;;14.67;100.00;97902.34;5048046;28;20090;-86
2023/10/20 03:35:40;;;;;;;57.47;26.15;;;;;;;14.62;100.00;97894.75;5042900;28;20033;-85
2023/10/20 03:38:09;;;;;;;47.20;24.30;;;;;;;14.57;100.00;97871.69;5046091;28;20029;-86
2023/10/20 03:40:38;;;;;;;57.40;25.33;;;;;;;14.49;100.00;97878.28;5028463;28;20057;-86
2023/10/20 03:43:08;;;;;;;48.63;23.63;;;;;;;14.52;100.00;97875.09;5050906;28;20111;-86
2023/10/20 03:45:54;;;;;;;57.22;25.20;;;;;;;14.43;100.00;97868.16;5045984;28;20063;-86
2023/10/20 03:48:19;;;;;;;46.30;24.20;;;;;;;14.40;100.00;97882.38;5044767;28;20069;-86
2023/10/20 03:50:47;;;;;;;56.78;25.52;;;;;;;14.47;100.00;97873.00;5049641;28;20063;-86
2023/10/20 03:53:22;;;;;;;52.35;23.88;;;;;;;14.44;100.00;97864.34;5048656;28;20040;-86
2023/10/20 03:55:59;;;;;;;55.15;24.85;;;;;;;14.49;100.00;97850.75;5049746;28;20094;-87
2023/10/20 03:58:27;;;;;;;50.10;24.10;;;;;;;14.48;100.00;97838.91;5044627;28;20171;-86
2023/10/20 04:01:03;;;;;;;48.65;23.00;;;;;;;14.47;100.00;97841.88;5026499;28;20692;-87
2023/10/20 04:03:31;;;;;;;47.70;24.33;;;;;;;14.44;100.00;97850.56;5046319;28;20028;-87
2023/10/20 04:05:57;;;;;;;46.45;24.65;;;;;;;14.42;100.00;97856.31;5047191;28;20152;-87
2023/10/20 04:08:24;;;;;;;59.00;24.85;;;;;;;14.46;100.00;97856.69;5050067;28;20064;-77
2023/10/20 04:10:57;;;;;;;54.03;24.77;;;;;;;14.45;100.00;97847.59;5047431;28;20037;-77
2023/10/20 04:13:23;;;;;;;48.35;25.20;;;;;;;14.45;100.00;97846.78;5060237;28;20041;-77
2023/10/20 04:15:49;;;;;;;55.75;24.80;;;;;;;14.45;100.00;97822.81;5027832;28;20022;-77
2023/10/20 04:18:16;;;;;;;56.45;24.52;;;;;;;14.51;100.00;97819.19;5033446;28;20055;-78
2023/10/20 04:20:42;;;;;;;54.40;25.15;;;;;;;14.47;100.00;97828.94;5048214;28;20021;-77
2023/10/20 04:23:08;;;;;;;55.10;24.17;;;;;;;14.51;100.00;97830.22;5046510;28;20045;-77
2023/10/20 04:25:52;;;;;;;57.95;25.15;;;;;;;14.59;100.00;97809.84;5049485;28;20486;-77
2023/10/20 04:28:20;;;;;;;;;;;;;;;14.56;100.00;97798.41;5034196;28;20095;-78
2023/10/20 04:42:01;;;;;;;53.78;25.40;;;;;;;14.52;100.00;97752.03;5050855;28;20142;-78
2023/10/20 04:57:52;;;;;;;59.58;25.15;;;;;;;14.55;100.00;97716.88;5051164;28;20041;-78
2023/10/20 05:05:40;;;;;;;60.55;25.75;;;;;;;14.55;100.00;97723.22;5023835;28;20034;-77
2023/10/20 05:10:38;;;;;;;56.25;25.33;;;;;;;14.53;100.00;97700.59;5047404;28;20029;-76
2023/10/20 05:13:05;;;;;;;65.05;26.45;;;;;;;14.61;100.00;97691.22;5050873;28;20044;-76
2023/10/20 05:15:32;;;;;;;63.95;25.77;;;;;;;14.53;100.00;97684.91;5048259;28;20502;-76
2023/10/20 05:17:59;;;;;;;58.05;27.25;;;;;;;14.58;100.00;97708.19;5048648;28;20075;-77
2023/10/20 05:20:25;;;;;;;60.03;26.65;;;;;;;14.53;100.00;97693.16;5048893;28;20029;-76
2023/10/20 05:22:50;;;;;;;61.63;26.60;;;;;;;14.53;100.00;97673.88;5046801;28;20045;-76
2023/10/20 05:25:17;;;;;;;48.95;25.73;;;;;;;14.57;100.00;97671.53;5045986;28;20037;-76
2023/10/20 05:27:44;;;;;;;57.40;26.30;;;;;;;14.52;100.00;97679.63;5049090;28;20087;-76
2023/10/20 05:30:10;;;;;;;51.92;25.30;;;;;;;14.65;100.00;97670.44;5043674;28;20159;-76
2023/10/20 05:32:39;;;;;;;51.83;24.83;;;;;;;14.63;100.00;97656.06;5012219;28;20762;-76
2023/10/20 05:35:07;;;;;;;50.63;25.13;;;;;;;14.55;100.00;97648.06;5047743;28;20037;-76
2023/10/20 05:37:32;;;;;;;59.58;27.13;;;;;;;14.61;100.00;97666.44;5034846;28;20470;-76
2023/10/20 05:39:58;;;;;;;52.83;24.88;;;;;;;14.62;100.00;97679.97;5047994;28;20044;-76
2023/10/20 05:42:24;;;;;;;61.17;25.83;;;;;;;14.56;100.00;97685.50;5032124;28;20029;-76
2023/10/20 05:47:33;;;;;;;50.25;24.40;;;;;;;14.59;100.00;97688.69;5047920;28;20119;-77
2023/10/20 05:50:00;;;;;;;59.30;26.15;;;;;;;14.71;100.00;97694.31;5049606;28;20041;-76
2023/10/20 05:52:26;;;;;;;54.25;24.95;;;;;;;14.65;100.00;97675.94;5049145;28;20025;-76
2023/10/20 05:54:54;;;;;;;54.40;25.63;;;;;;;14.68;100.00;97669.97;5051315;28;21635;-76
2023/10/20 05:57:19;;;;;;;54.42;25.00;;;;;;;14.62;100.00;97660.69;5021710;28;20025;-76
2023/10/20 05:59:46;;;;;;;56.35;26.50;;;;;;;14.58;100.00;97664.97;5049692;28;20403;-76
2023/10/20 06:02:12;;;;;;;58.45;26.05;;;;;;;14.68;100.00;97664.47;5010208;28;20190;-76
2023/10/20 06:04:37;;;;;;;66.15;27.33;;;;;;;14.61;100.00;97658.16;5033876;28;20115;-76
2023/10/20 06:07:04;;;;;;;53.92;24.52;;;;;;;14.53;100.00;97651.88;5040404;28;20136;-77
2023/10/20 06:09:29;;;;;;;62.22;27.73;;;;;;;14.64;100.00;97655.81;5042607;28;20460;-78
2023/10/20 06:11:56;;;;;;;58.05;27.15;;;;;;;14.49;100.00;97644.28;5044185;28;20037;-77
2023/10/20 06:14:23;;;;;;;64.93;28.77;;;;;;;14.48;100.00;97634.34;5034502;28;20150;-79
2023/10/20 06:16:49;;;;;;;65.00;28.20;;;;;;;14.49;100.00;97636.03;5028702;28;20025;-79
2023/10/20 06:19:15;;;;;;;68.55;29.55;;;;;;;14.55;100.00;97646.13;5047741;28;20063;-80
2023/10/20 06:21:45;;;;;;;67.00;30.48;;;;;;;14.58;100.00;97666.88;5045458;28;20128;-79
2023/10/20 06:24:11;;;;;;;71.55;31.27;;;;;;;14.65;100.00;97673.19;5049223;28;20656;-78
2023/10/20 06:26:37;;;;;;;76.68;33.10;;;;;;;14.68;100.00;97659.78;5045427;28;20036;-79
2023/10/20 06:29:02;;;;;;;81.20;36.40;;;;;;;14.67;100.00;97649.00;5039445;28;20030;-78
2023/10/20 06:31:41;;;;;;;73.75;35.75;;;;;;;14.70;100.00;97637.53;5049139;28;20376;-78
2023/10/20 06:34:22;;;;;;;87.03;37.60;;;;;;;14.70;100.00;97648.56;5048399;28;20044;-78
2023/10/20 06:36:51;;;;;;;96.70;40.50;;;;;;;14.60;100.00;97632.56;5050160;28;20119;-79
2023/10/20 06:39:18;;;;;;;91.78;40.20;;;;;;;14.66;100.00;97636.31;5030644;28;20033;-78
2023/10/20 06:41:44;;;;;;;95.38;42.42;;;;;;;14.65;100.00;97640.13;5049736;28;20017;-78
2023/10/20 06:44:10;;;;;;;90.40;42.50;;;;;;;14.72;100.00;97651.09;5032213;28;20036;-79
2023/10/20 06:46:36;;;;;;;101.65;43.55;;;;;;;14.74;100.00;97651.69;5045877;28;20087;-79
2023/10/20 06:49:03;;;;;;;104.72;44.78;;;;;;;14.69;100.00;97638.59;5024672;28;20025;-79
2023/10/20 06:51:29;;;;;;;112.13;46.53;;;;;;;14.72;100.00;97627.13;5048390;28;20037;-80
2023/10/20 06:53:55;;;;;;;109.18;48.00;;;;;;;14.75;100.00;97629.44;5049457;28;20470;-80
2023/10/20 06:56:20;;;;;;;106.95;47.25;;;;;;;14.83;100.00;97631.88;5033185;28;20036;-80
2023/10/20 06:58:47;;;;;;;119.18;50.08;;;;;;;14.69;100.00;97622.94;5027907;28;20414;-81
2023/10/20 07:01:14;;;;;;;112.85;48.75;;;;;;;14.72;100.00;97621.63;5033645;28;20398;-79
2023/10/20 07:03:40;;;;;;;109.28;47.33;;;;;;;14.69;100.00;97622.06;5049582;28;20021;-81
2023/10/20 07:06:10;;;;;;;109.25;47.15;;;;;;;14.79;100.00;97611.41;5027412;28;20534;-80
2023/10/20 07:08:37;;;;;;;112.60;45.60;;;;;;;14.77;100.00;97619.03;5047827;28;20048;-80
2023/10/20 07:11:03;;;;;;;113.03;47.97;;;;;;;14.74;100.00;97627.75;5049689;28;20032;-80
2023/10/20 07:13:31;;;;;;;107.35;47.58;;;;;;;14.79;100.00;97632.56;5047402;28;20025;-80
2023/10/20 07:15:57;;;;;;;98.20;45.63;;;;;;;14.78;100.00;97631.72;5047066;28;20056;-81
2023/10/20 07:18:24;;;;;;;111.40;46.05;;;;;;;14.74;100.00;97621.41;5045055;28;20056;-81
2023/10/20 07:20:50;;;;;;;103.57;42.55;;;;;;;14.80;100.00;97629.59;5030346;28;20063;-81
2023/10/20 07:23:17;;;;;;;108.47;44.97;;;;;;;14.80;100.00;97617.72;5049721;28;20024;-81
2023/10/20 07:25:43;;;;;;;103.07;45.00;;;;;;;14.77;100.00;97605.25;5017197;28;20039;-81
2023/10/20 07:28:09;;;;;;;98.88;44.42;;;;;;;14.81;100.00;97612.00;5047638;28;20040;-81
2023/10/20 07:30:40;;;;;;;104.25;44.00;;;;;;;14.79;100.00;97613.28;5032109;28;20049;-81
2023/10/20 07:33:07;;;;;;;93.72;43.40;;;;;;;14.72;100.00;97599.59;5043005;28;20157;-81
2023/10/20 07:35:32;;;;;;;95.57;42.03;;;;;;;14.65;100.00;97607.09;5030218;28;20558;-81
2023/10/20 07:37:58;;;;;;;105.80;43.78;;;;;;;14.74;100.00;97610.38;5032806;28;20039;-81
2023/10/20 07:40:26;;;;;;;97.53;40.40;;;;;;;14.67;100.00;97604.94;5032448;28;20055;-80
2023/10/20 07:42:53;;;;;;;91.80;40.53;;;;;;;14.74;100.00;97605.72;5017363;28;20123;-81
2023/10/20 07:45:19;;;;;;;94.10;40.40;;;;;;;14.59;100.00;97592.31;5015871;28;20583;-81
2023/10/20 07:47:47;;;;;;;98.03;41.55;;;;;;;14.66;100.00;97598.59;5049740;28;20456;-81
2023/10/20 07:50:13;;;;;;;87.72;38.72;;;;;;;14.72;100.00;97605.09;5032006;28;20040;-80
2023/10/20 07:52:38;;;;;;;88.80;41.58;;;;;;;14.66;100.00;97604.13;5049057;28;20029;-80
2023/10/20 07:55:05;;;;;;;101.82;41.97;;;;;;;14.72;100.00;97596.00;5033174;28;20064;-81
2023/10/20 07:57:32;;;;;;;95.50;42.08;;;;;;;14.65;100.00;97579.56;5033278;28;20108;-81
2023/10/20 07:59:57;;;;;;;92.90;40.58;;;;;;;14.64;100.00;97589.75;5033154;28;20029;-81
2023/10/20 08:02:23;;;;;;;91.85;40.22;;;;;;;14.69;100.00;97584.38;5043953;28;20450;-80
2023/10/20 08:04:50;;;;;;;108.07;40.35;;;;;;;14.67;100.00;97583.75;5032657;28;20021;-81
2023/10/20 08:07:16;;;;;;;106.22;42.35;;;;;;;14.67;100.00;97582.91;5046021;28;20045;-81
2023/10/20 08:09:43;;;;;;;88.05;38.28;;;;;;;14.69;100.00;97580.75;5064268;28;20086;-81
2023/10/20 08:12:08;;;;;;;98.35;40.20;;;;;;;14.64;100.00;97578.72;5029634;28;20493;-81
2023/10/20 08:14:35;;;;;;;86.15;38.53;;;;;;;14.66;100.00;97584.84;5050602;28;20061;-81
2023/10/20 08:17:03;;;;;;;89.88;37.38;;;;;;;14.64;100.00;97575.97;5032501;28;20040;-80
2023/10/20 08:19:30;;;;;;;81.93;37.75;;;;;;;14.71;100.00;97575.91;5031644;28;20049;-81
2023/10/20 08:21:57;;;;;;;103.43;38.35;;;;;;;14.74;100.00;97589.22;5016628;28;20071;-81
2023/10/20 08:24:23;;;;;;;83.50;34.60;;;;;;;14.67;100.00;97597.53;5051011;28;20033;-81
2023/10/20 08:26:48;;;;;;;100.60;37.30;;;;;;;14.68;100.00;97593.69;5048249;28;20037;-80
2023/10/20 08:29:16;;;;;;;80.07;34.58;;;;;;;14.60;100.00;97588.50;5031489;28;20033;-80
2023/10/20 08:31:41;;;;;;;86.90;35.90;;;;;;;14.64;100.00;97591.63;5031121;28;20041;-80
2023/10/20 08:34:07;;;;;;;84.03;33.35;;;;;;;14.69;100.00;97591.78;5008888;28;20025;-81
2023/10/20 08:36:32;;;;;;;73.40;32.08;;;;;;;14.80;100.00;97571.75;5049410;28;20403;-80
2023/10/20 08:39:01;;;;;;;62.83;30.42;;;;;;;14.77;100.00;97583.22;5049431;28;20060;-80
2023/10/20 08:41:27;;;;;;;61.67;28.50;;;;;;;14.73;100.00;97589.44;5013014;28;20527;-80
2023/10/20 08:43:55;;;;;;;53.35;26.30;;;;;;;14.50;100.00;97590.91;5043213;28;20115;-79
2023/10/20 08:46:23;;;;;;;72.55;27.10;;;;;;;14.62;100.00;97591.03;5050133;28;20033;-79
2023/10/20 08:48:49;;;;;;;58.63;25.58;;;;;;;14.63;100.00;97590.81;5051812;28;20044;-88
2023/10/20 08:51:17;;;;;;;53.75;25.25;;;;;;;14.61;100.00;97590.19;5050926;28;20033;-87
2023/10/20 08:53:44;;;;;;;46.78;23.58;;;;;;;14.55;100.00;97582.81;5050928;28;20116;-89
2023/10/20 08:56:13;;;;;;;52.13;23.05;;;;;;;14.55;100.00;97576.47;5032484;28;20029;-88
2023/10/20 08:58:38;;;;;;;49.35;22.55;;;;;;;14.58;100.00;97579.59;5051632;28;20024;-88
2023/10/20 09:01:07;;;;;;;41.42;21.75;;;;;;;14.48;100.00;97584.81;5021394;28;20489;-87
2023/10/20 09:03:43;;;;;;;35.50;19.55;;;;;;;14.47;100.00;97581.19;5052232;28;20059;-88
2023/10/20 09:06:14;;;;;;;56.10;21.67;;;;;;;14.37;100.00;97577.28;5038326;28;20159;-88
2023/10/20 09:08:40;;;;;;;49.83;20.42;;;;;;;14.58;100.00;97589.78;5057041;28;20032;-89
2023/10/20 09:11:11;;;;;;;40.67;19.75;;;;;;;14.46;100.00;97586.91;5055770;28;20025;-89
2023/10/20 09:13:39;;;;;;;29.00;15.77;;;;;;;14.45;100.00;97586.09;5051129;28;20035;-89
2023/10/20 09:16:13;;;;;;;34.22;15.77;;;;;;;14.42;100.00;97578.28;5056487;28;20016;-89
2023/10/20 09:18:49;;;;;;;27.55;15.38;;;;;;;14.48;100.00;97580.13;5055976;28;20037;-90
2023/10/20 09:21:16;;;;;;;32.63;16.85;;;;;;;14.49;100.00;97568.06;5027983;28;20124;-90
2023/10/20 09:24:02;;;;;;;28.73;17.13;;;;;;;14.61;100.00;97572.81;5013089;28;20089;-90
2023/10/20 09:26:30;;;;;;;38.88;18.75;;;;;;;14.57;100.00;97564.13;5052158;28;20046;-90
2023/10/20 09:28:57;;;;;;;42.65;20.25;;;;;;;14.62;100.00;97557.97;5055639;28;20406;-90
2023/10/20 09:31:24;;;;;;;37.03;17.17;;;;;;;14.59;100.00;97559.28;5022815;28;20036;-90
2023/10/20 09:33:51;;;;;;;28.35;16.33;;;;;;;14.47;100.00;97572.94;5050573;28;20029;-90
2023/10/20 09:36:18;;;;;;;32.63;16.48;;;;;;;14.51;100.00;97587.06;5052123;28;20026;-90
2023/10/20 09:38:49;;;;;;;31.75;17.90;;;;;;;14.51;100.00;97582.44;5046496;28;20100;-90
2023/10/20 09:41:17;;;;;;;33.42;17.25;;;;;;;14.43;100.00;97576.34;5037184;28;20063;-90
2023/10/20 09:43:48;;;;;;;33.75;17.98;;;;;;;14.46;100.00;97573.16;5038945;28;20028;-90
2023/10/20 09:46:30;;;;;;;33.92;17.80;;;;;;;14.56;100.00;97584.50;5055081;28;20170;-91
2023/10/20 09:48:59;;;;;;;34.65;17.83;;;;;;;14.54;100.00;97570.09;5056794;28;20037;-91
2023/10/20 09:51:26;;;;;;;31.05;17.73;;;;;;;14.52;100.00;97580.50;5066911;28;20092;-90
2023/10/20 09:53:53;;;;;;;31.50;17.38;;;;;;;14.48;100.00;97571.88;5054040;28;20597;-91
2023/10/20 09:56:21;;;;;;;30.92;17.13;;;;;;;14.40;100.00;97565.84;5049354;28;20021;-90
2023/10/20 09:58:46;;;;;;;26.73;16.67;;;;;;;14.40;100.00;97561.16;5037588;28;20035;-81
2023/10/20 10:01:15;;;;;;;26.42;17.38;;;;;;;14.53;100.00;97563.75;5050750;28;20072;-81
2023/10/20 10:03:47;;;;;;;26.58;16.02;;;;;;;14.26;100.00;97548.59;5034683;28;20044;-81
2023/10/20 10:06:19;;;;;;;22.63;15.07;;;;;;;14.35;100.00;97561.00;5051632;28;20040;-80
2023/10/20 10:08:46;;;;;;;26.92;16.88;;;;;;;14.39;100.00;97564.13;5051957;28;20100;-81
2023/10/20 10:11:29;;;;;;;25.58;15.82;;;;;;;14.40;100.00;97552.06;5050580;28;20045;-81
2023/10/20 10:13:57;;;;;;;20.73;17.00;;;;;;;14.42;100.00;97556.25;5031658;28;20406;-81
2023/10/20 10:16:23;;;;;;;27.98;17.88;;;;;;;14.54;100.00;97570.09;5034479;28;20438;-81
2023/10/20 10:18:49;;;;;;;20.77;16.40;;;;;;;14.25;100.00;97566.16;5051668;28;20033;-81
2023/10/20 10:21:25;;;;;;;28.77;16.80;;;;;;;14.27;100.00;97570.38;5049656;28;20044;-82
2023/10/20 10:24:07;;;;;;;22.48;16.70;;;;;;;14.39;100.00;97567.72;5028654;28;20034;-81
2023/10/20 10:26:33;;;;;;;23.08;16.80;;;;;;;14.27;100.00;97556.63;5046200;28;20020;-81
2023/10/20 10:28:59;;;;;;;25.60;17.33;;;;;;;14.23;100.00;97558.16;5033177;28;20057;-81
2023/10/20 10:31:36;;;;;;;24.90;17.60;;;;;;;14.24;100.00;97561.75;5051047;28;20064;-81
2023/10/20 10:34:04;;;;;;;24.45;18.13;;;;;;;14.22;100.00;97556.47;5047443;28;20104;-81
2023/10/20 10:36:50;;;;;;;23.02;17.80;;;;;;;14.22;100.00;97550.13;5035331;28;20025;-81
2023/10/20 10:39:29;;;;;;;24.65;16.40;;;;;;;14.24;100.00;97548.81;5049800;28;20036;-82
2023/10/20 10:42:02;;;;;;;26.08;18.20;;;;;;;14.20;100.00;97553.13;5045405;28;20033;-81
2023/10/20 10:44:31;;;;;;;;;;;;;;;14.16;100.00;97546.38;5061543;28;20032;-82
2023/10/20 10:46:56;;;;;;;23.80;15.85;;;;;;;14.18;100.00;97554.41;5034344;28;19921;-81
2023/10/20 10:49:23;;;;;;;27.48;17.35;;;;;;;14.14;100.00;97548.50;5034544;28;20035;-82
2023/10/20 10:51:50;;;;;;;28.92;16.75;;;;;;;14.12;100.00;97542.41;5018199;28;20025;-82
2023/10/20 10:54:17;;;;;;;22.38;16.50;;;;;;;14.02;100.00;97531.91;5034668;28;20086;-82
2023/10/20 10:56:42;;;;;;;23.33;16.88;;;;;;;13.97;100.00;97526.25;5033179;28;20017;-81
2023/10/20 10:59:09;;;;;;;29.08;17.30;;;;;;;14.00;100.00;97523.00;5033662;28;20031;-81
2023/10/20 11:01:37;;;;;;;23.73;17.77;;;;;;;14.02;100.00;97522.78;5052215;28;20386;-81
2023/10/20 11:04:03;;;;;;;27.88;17.70;;;;;;;14.01;100.00;97510.97;5045680;28;20033;-81
2023/10/20 11:06:32;;;;;;;29.60;19.58;;;;;;;14.03;100.00;97500.56;5017120;28;20053;-81
2023/10/20 11:08:58;;;;;;;26.63;17.92;;;;;;;14.09;100.00;97502.41;5035078;28;20467;-91
2023/10/20 11:11:25;;;;;;;30.50;18.63;;;;;;;14.01;100.00;97488.94;5050271;28;20116;-92
2023/10/20 11:13:51;;;;;;;28.92;19.13;;;;;;;13.99;100.00;97482.84;5044988;28;20178;-91
2023/10/20 11:16:17;;;;;;;31.58;20.23;;;;;;;14.02;100.00;97485.16;5034484;28;20493;-91
2023/10/20 11:18:46;;;;;;;25.67;18.98;;;;;;;14.10;100.00;97479.34;5036265;28;20035;-91
2023/10/20 11:21:13;;;;;;;27.13;18.75;;;;;;;14.07;100.00;97466.03;5036763;28;20183;-91
2023/10/20 11:23:38;;;;;;;34.92;19.20;;;;;;;14.24;100.00;97466.28;5037227;28;20032;-91
2023/10/20 11:26:17;;;;;;;21.85;17.40;;;;;;;14.14;100.00;97466.81;5036963;28;20029;-91
2023/10/20 11:28:43;;;;;;;29.52;17.60;;;;;;;14.23;100.00;97467.34;5018445;28;20037;-91
2023/10/20 11:31:08;;;;;;;22.55;17.13;;;;;;;14.22;100.00;97457.41;5035507;28;20550;-91
2023/10/20 11:33:34;;;;;;;30.98;18.25;;;;;;;14.17;100.00;97446.25;5035405;28;20116;-91
2023/10/20 11:36:00;;;;;;;19.55;15.48;;;;;;;14.07;100.00;97448.69;5006547;28;20029;-92
2023/10/20 11:38:27;;;;;;;17.95;15.15;;;;;;;14.07;100.00;97448.69;5036263;28;20035;-91
2023/10/20 11:40:53;;;;;;;19.55;15.32;;;;;;;14.03;100.00;97448.28;5061709;28;20547;-92
2023/10/20 11:43:19;;;;;;;24.00;14.68;;;;;;;14.08;100.00;97440.19;5017374;28;20117;-92
2023/10/20 11:45:45;;;;;;;19.80;14.82;;;;;;;14.08;100.00;97442.13;5047137;28;20040;-91